Time;durP1;ratioP1;P1;durP2;ratioP2;P2;SDS_P1;SDS_P2;PMS_P1;PMS_P2;Temp;Humidity;BMP_temperature;BMP_pressure;BME280_temperature;BME280_humidity;BME280_pressure;Samples;Min_cycle;Max_cycle;Signal;HPM_P1;HPM_P2
2023/02/06 00:02:03;;;;;;;;;;;5.20;1.00;;;;;;5074366;28;19934;-76
2023/02/06 00:04:39;;;;;;;;;;;5.20;1.00;;;;;;5092223;28;19908;-76
2023/02/06 00:07:15;;;;;;;;;;;5.20;1.00;;;;;;5060146;28;19965;-76
2023/02/06 00:09:40;;;;;;;;;;;5.20;1.00;;;;;;5066043;28;19920;-77
2023/02/06 00:12:09;;;;;;;;;;;5.10;1.00;;;;;;5085527;28;19909;-76
2023/02/06 00:14:34;;;;;;;;;;;5.10;1.00;;;;;;5061673;28;20311;-76
2023/02/06 00:17:00;;;;;;;;;;;5.10;1.00;;;;;;5070896;28;19913;-76
2023/02/06 00:19:27;;;;;;;;;;;5.10;1.00;;;;;;5068266;28;19912;-76
2023/02/06 00:22:03;;;;;;;;;;;5.10;1.00;;;;;;5053338;28;19924;-76
2023/02/06 00:24:33;;;;;;;;;;;5.10;1.00;;;;;;5066706;28;20004;-77
2023/02/06 00:26:58;;;;;;;;;;;5.10;1.00;;;;;;5053281;28;19910;-77
2023/02/06 00:29:24;;;;;;;;;;;5.10;1.00;;;;;;5053185;28;19920;-77
2023/02/06 00:31:50;;;;;;;;;;;5.20;1.00;;;;;;5064592;28;20339;-76
2023/02/06 00:34:21;;;;;;;;;;;5.20;1.00;;;;;;5073011;28;19909;-77
2023/02/06 00:39:49;;;;;;;;;;;5.20;1.00;;;;;;5053522;28;19954;-91
2023/02/06 00:42:39;;;;;;;;;;;5.20;1.00;;;;;;5067163;28;19912;-91
2023/02/06 00:45:09;;;;;;;;;;;5.20;1.00;;;;;;5067780;28;19920;-91
2023/02/06 00:47:35;;;;;;;;;;;5.20;1.00;;;;;;5055262;28;19917;-91
2023/02/06 00:50:09;;;;;;;;;;;5.10;1.00;;;;;;5070888;28;20374;-91
2023/02/06 00:52:39;;;;;;;;;;;5.20;1.00;;;;;;5069319;28;19955;-91
2023/02/06 00:55:09;;;;;;;;;;;5.20;1.00;;;;;;5089856;28;19913;-91
2023/02/06 00:57:39;;;;;;;;;;;5.20;1.00;;;;;;5057547;28;19923;-91
2023/02/06 01:00:09;;;;;;;;;;;5.20;1.00;;;;;;5105428;28;19916;-91
2023/02/06 01:03:09;;;;;;;;;;;5.20;1.00;;;;;;5077001;28;20363;-91
2023/02/06 01:05:39;;;;;;;;;;;5.20;1.00;;;;;;5109312;28;19912;-91
2023/02/06 01:08:09;;;;;;;;;;;5.20;1.00;;;;;;5067834;28;19913;-77
2023/02/06 01:10:40;;;;;;;;;;;5.20;1.00;;;;;;5057743;28;19935;-77
2023/02/06 01:13:06;;;;;;;;;;;5.20;1.00;;;;;;5064830;28;19909;-77
2023/02/06 01:15:33;;;;;;;;;;;5.20;1.00;;;;;;5056113;28;20360;-77
2023/02/06 01:18:04;;;;;;;;;;;5.10;1.00;;;;;;5056031;28;19970;-77
2023/02/06 01:20:33;;;;;;;;;;;5.20;1.00;;;;;;5073865;28;19916;-76
2023/02/06 01:23:22;;;;;;;;;;;5.20;1.00;;;;;;5075712;28;20349;-91
2023/02/06 01:31:53;;;;;;;;;;;5.20;1.00;;;;;;5071304;28;20288;-91
2023/02/06 01:34:19;;;;;;;;;;;5.20;1.00;;;;;;5089967;28;19913;-91
2023/02/06 01:36:44;;;;;;;;;;;5.20;1.00;;;;;;5078825;28;19931;-78
2023/02/06 01:39:10;;;;;;;;;;;5.20;1.00;;;;;;5074929;28;19917;-76
2023/02/06 01:41:36;;;;;;;;;;;5.20;1.00;;;;;;5056154;28;19913;-76
2023/02/06 01:44:11;;;;;;;;;;;5.20;1.00;;;;;;5067062;28;20013;-77
2023/02/06 01:46:57;;;;;;;;;;;5.20;1.00;;;;;;5061946;28;19908;-76
2023/02/06 01:49:39;;;;;;;;;;;5.20;1.00;;;;;;5057214;28;19998;-76
2023/02/06 01:52:29;;;;;;;;;;;5.20;1.00;;;;;;5038309;28;19966;-77
2023/02/06 01:54:59;;;;;;;;;;;5.10;1.00;;;;;;5027346;28;19909;-76
2023/02/06 01:57:39;;;;;;;;;;;5.10;1.00;;;;;;5036723;28;19917;-76
2023/02/06 02:00:09;;;;;;;;;;;5.20;1.00;;;;;;5041440;28;19913;-76
2023/02/06 02:02:42;;;;;;;;;;;5.10;1.00;;;;;;5046979;28;19975;-76
2023/02/06 02:05:21;;;;;;;;;;;5.10;1.00;;;;;;5035231;28;19909;-77
2023/02/06 02:14:15;;;;;;;;;;;5.10;1.00;;;;;;5038798;28;20438;-91
2023/02/06 02:17:09;;;;;;;;;;;5.10;1.00;;;;;;5061503;28;20395;-91
2023/02/06 02:19:53;;;;;;;;;;;5.00;1.00;;;;;;5057852;28;20309;-91
2023/02/06 02:22:39;;;;;;;;;;;5.00;1.00;;;;;;5075888;28;20271;-78
2023/02/06 02:25:09;;;;;;;;;;;5.00;1.00;;;;;;5047624;28;19913;-76
2023/02/06 02:27:57;;;;;;;;;;;5.00;1.00;;;;;;5065259;28;19912;-76
2023/02/06 02:30:41;;;;;;;;;;;5.00;1.00;;;;;;5047599;28;19913;-77
2023/02/06 02:33:09;;;;;;;;;;;5.10;1.00;;;;;;5037668;28;19909;-76
2023/02/06 02:35:49;;;;;;;;;;;5.10;1.00;;;;;;5065838;28;20314;-76
2023/02/06 02:38:21;;;;;;;;;;;5.10;1.00;;;;;;5053667;28;19928;-76
2023/02/06 02:40:53;;;;;;;;;;;5.10;1.00;;;;;;5046060;28;20352;-76
2023/02/06 02:43:19;;;;;;;;;;;5.10;1.00;;;;;;5035446;28;19944;-76
2023/02/06 02:46:13;;;;;;;;;;;5.10;1.00;;;;;;5047669;28;19960;-76
2023/02/06 02:48:40;;;;;;;;;;;5.10;1.00;;;;;;5059865;28;20039;-77
2023/02/06 02:51:22;;;;;;;;;;;5.10;1.00;;;;;;5064866;28;19934;-76
2023/02/06 02:54:09;;;;;;;;;;;5.10;1.00;;;;;;5093860;28;19912;-91
2023/02/06 02:56:35;;;;;;;;;;;5.10;1.00;;;;;;5058844;28;19913;-91
2023/02/06 02:59:27;;;;;;;;;;;5.10;1.00;;;;;;5063326;28;19916;-91
2023/02/06 03:01:57;;;;;;;;;;;5.10;1.00;;;;;;5101236;28;19909;-91
2023/02/06 03:04:30;;;;;;;;;;;5.00;1.00;;;;;;5067893;28;19909;-91
2023/02/06 03:07:21;;;;;;;;;;;5.00;1.00;;;;;;5074071;28;19908;-91
2023/02/06 03:12:52;;;;;;;;;;;5.00;1.00;;;;;;5061128;28;20414;-90
2023/02/06 03:15:36;;;;;;;;;;;5.00;1.00;;;;;;5097531;28;19915;-91
2023/02/06 03:18:17;;;;;;;;;;;5.00;1.00;;;;;;5068015;28;20334;-91
2023/02/06 03:21:03;;;;;;;;;;;4.90;1.00;;;;;;5055455;28;20007;-91
2023/02/06 03:26:57;;;;;;;;;;;4.90;1.00;;;;;;5062736;28;19957;-91
2023/02/06 03:29:30;;;;;;;;;;;4.90;1.00;;;;;;5055208;28;20288;-91
2023/02/06 03:32:22;;;;;;;;;;;4.90;1.00;;;;;;5054158;28;19956;-91
2023/02/06 03:35:00;;;;;;;;;;;4.90;1.00;;;;;;5072185;28;20010;-91
2023/02/06 03:37:27;;;;;;;;;;;4.90;1.00;;;;;;5069531;28;19936;-90
2023/02/06 03:39:58;;;;;;;;;;;4.90;1.00;;;;;;5053402;28;19952;-76
2023/02/06 03:42:24;;;;;;;;;;;4.90;1.00;;;;;;5053525;28;19912;-76
2023/02/06 03:45:06;;;;;;;;;;;4.80;1.00;;;;;;5055689;28;19909;-76
2023/02/06 03:47:35;;;;;;;;;;;4.80;1.00;;;;;;5051408;28;20372;-76
2023/02/06 03:50:01;;;;;;;;;;;4.80;1.00;;;;;;5066946;28;19923;-76
2023/02/06 03:52:31;;;;;;;;;;;4.80;1.00;;;;;;5053688;28;19909;-76
2023/02/06 03:58:21;;;;;;;;;;;4.80;1.00;;;;;;5060268;28;19919;-91
2023/02/06 04:00:51;;;;;;;;;;;4.70;1.00;;;;;;5096397;28;19909;-91
2023/02/06 04:03:21;;;;;;;;;;;4.80;1.00;;;;;;5056812;28;19919;-91
2023/02/06 04:06:03;;;;;;;;;;;4.70;1.00;;;;;;5069306;28;19979;-91
2023/02/06 04:08:33;;;;;;;;;;;4.70;1.00;;;;;;5065285;28;19908;-77
2023/02/06 04:10:58;;;;;;;;;;;4.80;1.00;;;;;;5078990;28;19912;-76
2023/02/06 04:13:27;;;;;;;;;;;4.80;1.00;;;;;;5060484;28;19935;-76
2023/02/06 04:15:55;;;;;;;;;;;4.80;1.00;;;;;;5059845;28;19909;-76
2023/02/06 04:18:22;;;;;;;;;;;4.70;1.00;;;;;;5062114;28;20291;-76
2023/02/06 04:20:51;;;;;;;;;;;4.70;1.00;;;;;;5056586;28;19995;-76
2023/02/06 04:23:20;;;;;;;;;;;4.80;1.00;;;;;;5078357;28;19974;-90
2023/02/06 04:25:57;;;;;;;;;;;4.80;1.00;;;;;;5097389;28;19910;-76
2023/02/06 04:28:23;;;;;;;;;;;4.80;1.00;;;;;;5097581;28;19912;-76
2023/02/06 04:30:48;;;;;;;;;;;4.80;1.00;;;;;;5068703;28;19958;-76
2023/02/06 04:33:14;;;;;;;;;;;4.80;1.00;;;;;;5076957;28;19942;-76
2023/02/06 04:35:50;;;;;;;;;;;4.80;1.00;;;;;;5071141;28;20274;-76
2023/02/06 04:47:25;;;;;;;;;;;4.80;1.00;;;;;;5071095;28;19924;-91
2023/02/06 04:55:49;;;;;;;;;;;4.60;1.00;;;;;;5089501;28;20259;-76
2023/02/06 04:58:33;;;;;;;;;;;4.60;1.00;;;;;;5094148;28;19912;-76
2023/02/06 05:00:59;;;;;;;;;;;4.50;1.00;;;;;;5081871;28;19915;-76
2023/02/06 05:03:25;;;;;;;;;;;4.50;1.00;;;;;;5075941;28;19916;-74
2023/02/06 05:06:00;;;;;;;;;;;4.50;1.00;;;;;;5076187;28;19912;-82
2023/02/06 05:08:26;;;;;;;;;;;4.50;1.00;;;;;;5065675;28;19919;-75
2023/02/06 05:10:51;;;;;;;;;;;4.50;1.00;;;;;;5067969;28;19913;-79
2023/02/06 05:13:20;;;;;;;;;;;4.50;1.00;;;;;;5087628;28;19943;-79
2023/02/06 05:19:15;;;;;;;;;;;4.60;1.00;;;;;;5062217;28;19932;-81
2023/02/06 05:21:45;;;;;;;;;;;4.60;1.00;;;;;;5076008;28;19909;-81
2023/02/06 05:24:11;;;;;;;;;;;4.60;1.00;;;;;;5088495;28;19917;-81
2023/02/06 05:26:45;;;;;;;;;;;4.60;1.00;;;;;;5055304;28;19920;-81
2023/02/06 05:29:11;;;;;;;;;;;4.60;1.00;;;;;;5055854;28;19913;-80
2023/02/06 05:32:03;;;;;;;;;;;4.50;1.00;;;;;;5055893;28;19954;-80
2023/02/06 05:34:39;;;;;;;;;;;4.50;1.00;;;;;;5066651;28;19960;-80
2023/02/06 05:37:09;;;;;;;;;;;4.60;1.00;;;;;;5101056;27;19924;-80
2023/02/06 05:39:35;;;;;;;;;;;4.60;1.00;;;;;;5068631;28;19921;-80
2023/02/06 05:42:03;;;;;;;;;;;4.50;1.00;;;;;;5074681;28;19913;-80
2023/02/06 05:44:51;;;;;;;;;;;4.60;1.00;;;;;;5075012;28;20505;-80
2023/02/06 05:47:39;;;;;;;;;;;4.60;1.00;;;;;;5065329;28;19912;-80
2023/02/06 05:50:15;;;;;;;;;;;4.60;1.00;;;;;;5091357;28;19925;-80
2023/02/06 05:52:40;;;;;;;;;;;4.70;1.00;;;;;;5069484;28;19912;-80
2023/02/06 05:55:21;;;;;;;;;;;4.60;1.00;;;;;;5066148;28;19919;-80
2023/02/06 05:57:57;;;;;;;;;;;4.70;1.00;;;;;;5074189;28;19912;-80
2023/02/06 06:00:27;;;;;;;;;;;4.70;1.00;;;;;;5061888;28;19909;-80
2023/02/06 06:02:53;;;;;;;;;;;4.70;1.00;;;;;;5070655;28;20011;-80
2023/02/06 06:05:20;;;;;;;;;;;4.60;1.00;;;;;;5095014;28;19947;-80
2023/02/06 06:07:45;;;;;;;;;;;4.60;1.00;;;;;;5080590;28;19909;-81
2023/02/06 06:10:27;;;;;;;;;;;4.60;1.00;;;;;;5075455;28;20382;-81
2023/02/06 06:12:53;;;;;;;;;;;4.60;1.00;;;;;;5078445;28;19913;-80
2023/02/06 06:15:33;;;;;;;;;;;4.70;1.00;;;;;;5072184;28;20003;-80
2023/02/06 06:18:15;;;;;;;;;;;4.60;1.00;;;;;;5069685;28;20364;-79
2023/02/06 06:20:52;;;;;;;;;;;4.50;1.00;;;;;;5087127;28;19944;-79
2023/02/06 06:23:17;;;;;;;;;;;4.60;1.00;;;;;;5095938;28;19908;-79
2023/02/06 06:25:51;;;;;;;;;;;4.60;1.00;;;;;;5060232;28;19909;-82
2023/02/06 06:31:27;;;;;;;;;;;4.60;1.00;;;;;;5065723;28;19924;-83
2023/02/06 06:34:15;;;;;;;;;;;4.60;1.00;;;;;;5077155;28;19913;-83
2023/02/06 06:36:51;;;;;;;;;;;4.50;1.00;;;;;;5057306;28;19923;-83
2023/02/06 06:39:33;;;;;;;;;;;4.60;1.00;;;;;;5073931;28;19919;-83
2023/02/06 06:42:03;;;;;;;;;;;4.50;1.00;;;;;;5069962;28;20401;-84
2023/02/06 06:44:33;;;;;;;;;;;4.50;1.00;;;;;;5093494;28;19913;-83
2023/02/06 06:47:03;;;;;;;;;;;4.50;1.00;;;;;;5065400;28;20378;-84
2023/02/06 06:49:33;;;;;;;;;;;4.50;1.00;;;;;;5056299;28;19921;-83
2023/02/06 06:52:02;;;;;;;;;;;4.50;1.00;;;;;;5063082;28;19927;-83
2023/02/06 06:57:41;;;;;;;;;;;4.50;1.00;;;;;;5076560;28;19970;-83
2023/02/06 07:00:33;;;;;;;;;;;4.50;1.00;;;;;;5067757;28;19956;-83
2023/02/06 07:09:04;;;;;;;;;;;4.60;1.00;;;;;;5061957;28;19962;-84
2023/02/06 07:14:39;;;;;;;;;;;4.60;1.00;;;;;;5066333;28;19935;-84
2023/02/06 07:17:04;;;;;;;;;;;4.60;1.00;;;;;;5067909;28;19974;-74
2023/02/06 07:19:30;;;;;;;;;;;4.60;1.00;;;;;;5073360;28;20330;-75
2023/02/06 07:21:56;;;;;;;;;;;4.60;1.00;;;;;;5054184;28;20335;-74
2023/02/06 07:24:27;;;;;;;;;;;4.50;1.00;;;;;;5063013;28;19916;-74
2023/02/06 07:26:53;;;;;;;;;;;4.50;1.00;;;;;;5073574;28;19912;-74
2023/02/06 07:29:21;;;;;;;;;;;4.50;1.00;;;;;;5074570;28;19950;-75
2023/02/06 07:32:09;;;;;;;;;;;4.50;1.00;;;;;;5082046;28;19991;-90
2023/02/06 07:37:39;;;;;;;;;;;4.60;1.00;;;;;;5061991;28;19928;-90
2023/02/06 07:40:21;;;;;;;;;;;4.50;1.00;;;;;;5086812;28;19916;-90
2023/02/06 07:43:03;;;;;;;;;;;4.50;1.00;;;;;;5065940;28;20015;-91
2023/02/06 07:48:31;;;;;;;;;;;4.60;1.00;;;;;;5067112;28;19977;-91
2023/02/06 07:51:21;;;;;;;;;;;4.60;1.00;;;;;;5068737;28;19913;-91
2023/02/06 07:53:47;;;;;;;;;;;4.70;1.00;;;;;;5097066;28;19913;-90
2023/02/06 07:56:16;;;;;;;;;;;4.70;1.00;;;;;;5070706;28;20256;-88
2023/02/06 07:58:42;;;;;;;;;;;4.70;1.00;;;;;;5080718;28;19916;-88
2023/02/06 08:04:21;;;;;;;;;;;4.80;1.00;;;;;;5086381;28;20445;-86
2023/02/06 08:06:51;;;;;;;;;;;4.90;1.00;;;;;;5071026;28;19956;-87
2023/02/06 08:12:20;;;;;;;;;;;4.80;1.00;;;;;;5061090;28;19920;-86
2023/02/06 08:30:01;;;;;;;;;;;4.40;1.00;;;;;;5070966;28;19919;-87
2023/02/06 08:32:45;;;;;;;;;;;4.30;1.00;;;;;;5056340;28;20459;-87
2023/02/06 08:41:23;;;;;;;;;;;4.40;1.00;;;;;;5058852;28;19935;-77
2023/02/06 08:43:50;;;;;;;;;;;4.50;1.00;;;;;;5069962;28;20271;-76
2023/02/06 08:46:16;;;;;;;;;;;4.50;1.00;;;;;;5070746;28;19909;-76
2023/02/06 08:48:42;;;;;;;;;;;4.40;1.00;;;;;;5066293;28;21688;-76
2023/02/06 08:51:08;;;;;;;;;;;4.40;1.00;;;;;;5052429;28;19999;-76
2023/02/06 08:53:45;;;;;;;;;;;4.40;1.00;;;;;;5055304;28;20390;-76
2023/02/06 08:56:15;;;;;;;;;;;4.30;1.00;;;;;;5045076;28;19913;-75
2023/02/06 08:58:45;;;;;;;;;;;4.30;1.00;;;;;;5049617;28;19959;-76
2023/02/06 09:01:15;;;;;;;;;;;4.40;1.00;;;;;;5071836;28;19965;-76
2023/02/06 09:03:46;;;;;;;;;;;4.40;1.00;;;;;;5040091;28;19927;-76
2023/02/06 09:06:12;;;;;;;;;;;4.40;1.00;;;;;;5047509;28;19915;-76
2023/02/06 09:08:40;;;;;;;;;;;4.30;1.00;;;;;;5051172;28;19939;-76
2023/02/06 09:11:09;;;;;;;;;;;4.30;1.00;;;;;;5065865;28;19920;-76
2023/02/06 09:13:53;;;;;;;;;;;4.30;1.00;;;;;;5051284;28;19963;-88
2023/02/06 09:19:27;;;;;;;;;;;4.30;1.00;;;;;;5043026;28;19924;-88
2023/02/06 09:43:15;;;;;;;;;;;4.80;1.00;;;;;;5035409;28;19921;-76
2023/02/06 09:45:40;;;;;;;;;;;4.80;1.00;;;;;;5043534;28;20001;-76
2023/02/06 09:48:09;;;;;;;;;;;4.90;1.00;;;;;;5035618;28;19916;-76
2023/02/06 09:50:39;;;;;;;;;;;4.90;1.00;;;;;;5067765;28;19960;-76
2023/02/06 09:53:31;;;;;;;;;;;4.90;1.00;;;;;;5065518;28;19923;-76
2023/02/06 09:56:01;;;;;;;;;;;4.90;1.00;;;;;;5070348;28;20318;-76
2023/02/06 10:02:03;;;;;;;;;;;5.00;1.00;;;;;;5066565;28;19916;-89
2023/02/06 10:04:59;;;;;;;;;;;5.10;1.00;;;;;;5059569;28;19920;-89
2023/02/06 10:16:37;;;;;;;;;;;5.40;1.00;;;;;;5013614;28;19971;-89
2023/02/06 10:22:27;;;;;;;;;;;5.60;1.00;;;;;;4994770;28;19920;-89
2023/02/06 10:25:15;;;;;;;;;;;5.60;1.00;;;;;;4994367;28;19917;-89
2023/02/06 10:28:00;;;;;;;;;;;5.60;1.00;;;;;;4994589;28;19956;-81
2023/02/06 10:30:52;;;;;;;;;;;5.60;1.00;;;;;;4986826;28;19929;-82
2023/02/06 10:36:34;;;;;;;;;;;5.80;1.00;;;;;;4991174;28;20586;-84
2023/02/06 10:39:33;;;;;;;;;;;5.80;1.00;;;;;;4993176;28;19936;-83
2023/02/06 10:42:33;;;;;;;;;;;6.00;1.00;;;;;;4993286;28;20419;-83
2023/02/06 10:51:15;;;;;;;;;;;6.50;1.00;;;;;;5044121;28;19981;-82
2023/02/06 10:54:03;;;;;;;;;;;6.20;1.00;;;;;;5046990;28;20257;-83
2023/02/06 10:56:31;;;;;;;;;;;6.10;1.00;;;;;;5075799;28;19919;-83
2023/02/06 10:59:00;;;;;;;;;;;5.90;1.00;;;;;;5052621;28;20004;-78
2023/02/06 11:01:30;;;;;;;;;;;5.80;1.00;;;;;;5048372;28;19916;-78
2023/02/06 11:04:13;;;;;;;;;;;5.80;1.00;;;;;;5085170;28;20371;-77
2023/02/06 11:06:45;;;;;;;;;;;5.90;1.00;;;;;;5039092;28;19963;-77
2023/02/06 11:09:33;;;;;;;;;;;5.90;1.00;;;;;;5044014;28;19913;-77
2023/02/06 11:12:04;;;;;;;;;;;6.00;1.00;;;;;;5043658;28;19913;-77
2023/02/06 11:14:32;;;;;;;;;;;6.10;1.00;;;;;;5055013;28;19916;-77
2023/02/06 11:16:59;;;;;;;;;;;6.20;1.00;;;;;;5049279;28;20002;-77
2023/02/06 11:19:24;;;;;;;;;;;6.30;1.00;;;;;;5033969;28;19919;-78
2023/02/06 11:21:52;;;;;;;;;;;6.30;1.00;;;;;;5042040;28;19908;-78
2023/02/06 11:24:20;;;;;;;;;;;6.30;1.00;;;;;;5053760;28;19908;-77
2023/02/06 11:26:59;;;;;;;;;;;6.40;1.00;;;;;;5040292;28;20348;-77
2023/02/06 11:29:30;;;;;;;;;;;6.60;1.00;;;;;;5046670;28;20295;-82
2023/02/06 11:32:15;;;;;;;;;;;6.70;1.00;;;;;;5043090;28;19915;-82
2023/02/06 11:35:00;;;;;;;;;;;6.90;1.00;;;;;;5053935;28;19909;-82
2023/02/06 11:37:45;;;;;;;;;;;7.20;1.00;;;;;;5050853;28;19940;-84
2023/02/06 11:40:13;;;;;;;;;;;7.50;1.00;;;;;;5064681;28;20197;-84
2023/02/06 11:42:39;;;;;;;;;;;7.60;1.00;;;;;;5070401;28;19912;-78
2023/02/06 11:51:45;;;;;;;;;;;8.00;1.00;;;;;;5036463;28;20189;-84
2023/02/06 11:54:26;;;;;;;;;;;8.10;1.00;;;;;;5065822;28;19917;-84
2023/02/06 11:57:06;;;;;;;;;;;7.80;1.00;;;;;;5047265;28;20003;-84
2023/02/06 11:59:57;;;;;;;;;;;7.50;1.00;;;;;;5043200;28;19914;-84
2023/02/06 12:02:31;;;;;;;;;;;7.20;1.00;;;;;;5038905;28;19916;-83
2023/02/06 12:05:11;;;;;;;;;;;7.00;1.00;;;;;;5047398;28;19912;-83
2023/02/06 12:07:50;;;;;;;;;;;6.90;1.00;;;;;;5062364;28;20000;-84
2023/02/06 12:10:30;;;;;;;;;;;6.80;1.00;;;;;;5041353;28;19920;-81
2023/02/06 12:12:58;;;;;;;;;;;6.80;1.00;;;;;;5053118;28;19932;-81
2023/02/06 12:15:47;;;;;;;;;;;6.80;1.00;;;;;;5046033;28;19936;-77
2023/02/06 12:18:39;;;;;;;;;;;6.80;1.00;;;;;;5036357;28;20327;-77
2023/02/06 12:21:15;;;;;;;;;;;6.80;1.00;;;;;;5040985;28;20183;-77
2023/02/06 12:24:00;;;;;;;;;;;6.80;1.00;;;;;;5080058;28;20399;-78
2023/02/06 12:26:29;;;;;;;;;;;6.80;1.00;;;;;;5047571;28;19956;-78
2023/02/06 12:32:19;;;;;;;;;;;7.00;1.00;;;;;;5048303;28;19938;-85
2023/02/06 12:34:59;;;;;;;;;;;7.00;1.00;;;;;;5048066;28;19917;-84
2023/02/06 12:44:03;;;;;;;;;;;7.20;1.00;;;;;;5045244;28;19919;-79
2023/02/06 12:46:33;;;;;;;;;;;7.10;1.00;;;;;;5045550;28;19909;-79
2023/02/06 12:49:11;;;;;;;;;;;7.20;1.00;;;;;;5049914;28;19913;-78
2023/02/06 12:52:12;;;;;;;;;;;7.30;1.00;;;;;;5036374;28;20349;-78
2023/02/06 12:54:50;;;;;;;;;;;7.30;1.00;;;;;;5009192;28;19921;-78
2023/02/06 12:57:21;;;;;;;;;;;7.20;1.00;;;;;;4999589;28;19913;-78
2023/02/06 12:59:47;;;;;;;;;;;7.10;1.00;;;;;;5015016;28;19917;-78
2023/02/06 13:02:35;;;;;;;;;;;7.10;1.00;;;;;;5009574;28;19968;-81
2023/02/06 13:05:11;;;;;;;;;;;7.10;1.00;;;;;;4933941;29;20303;-79
2023/02/06 13:07:38;;;;;;;;;;;7.20;1.00;;;;;;4955355;29;19919;-79
2023/02/06 13:10:16;;;;;;;;;;;7.20;1.00;;;;;;4956755;28;20339;-77
2023/02/06 13:13:00;;;;;;;;;;;7.30;1.00;;;;;;4926070;29;20270;-77
2023/02/06 13:15:27;;;;;;;;;;;7.20;1.00;;;;;;4928349;29;19942;-76
2023/02/06 13:18:09;;;;;;;;;;;7.10;1.00;;;;;;4929019;29;19925;-76
2023/02/06 13:20:55;;;;;;;;;;;7.00;1.00;;;;;;4936379;29;20481;-78
2023/02/06 13:23:33;;;;;;;;;;;7.00;1.00;;;;;;4931043;29;20468;-76
2023/02/06 13:26:04;;;;;;;;;;;7.00;1.00;;;;;;4921140;29;19954;-77
2023/02/06 13:28:29;;;;;;;;;;;7.10;1.00;;;;;;4934314;29;20005;-76
2023/02/06 13:31:05;;;;;;;;;;;7.20;1.00;;;;;;4951801;29;20077;-76
2023/02/06 13:33:59;;;;;;;;;;;7.40;1.00;;;;;;4970127;28;20297;-77
2023/02/06 13:36:39;;;;;;;;;;;7.40;1.00;;;;;;4943809;28;20069;-77
2023/02/06 13:39:39;;;;;;;;;;;7.40;1.00;;;;;;4964515;28;19925;-77
2023/02/06 13:42:27;;;;;;;;;;;7.60;1.00;;;;;;4980851;28;19910;-77
2023/02/06 13:45:15;;;;;;;;;;;7.50;1.00;;;;;;5035983;28;19959;-80
2023/02/06 13:48:04;;;;;;;;;;;7.50;1.00;;;;;;5015986;28;19910;-80
2023/02/06 13:50:39;;;;;;;;;;;7.50;1.00;;;;;;5032589;28;19929;-78
2023/02/06 13:56:21;;;;;;;;;;;7.40;1.00;;;;;;5035308;28;19972;-78
2023/02/06 13:58:52;;;;;;;;;;;7.40;1.00;;;;;;5052575;28;20336;-79
2023/02/06 14:01:34;;;;;;;;;;;7.30;1.00;;;;;;5047652;28;19909;-77
2023/02/06 14:04:06;;;;;;;;;;;7.30;1.00;;;;;;5055073;28;19940;-77
2023/02/06 14:06:34;;;;;;;;;;;7.20;1.00;;;;;;5042078;28;19935;-78
2023/02/06 14:09:09;;;;;;;;;;;7.30;1.00;;;;;;5046860;28;20315;-77
2023/02/06 14:14:45;;;;;;;;;;;7.30;1.00;;;;;;5044922;28;19932;-77
2023/02/06 14:17:19;;;;;;;;;;;7.30;1.00;;;;;;5044225;28;19920;-77
2023/02/06 14:20:04;;;;;;;;;;;7.30;1.00;;;;;;5039770;28;19909;-78
2023/02/06 14:22:50;;;;;;;;;;;7.30;1.00;;;;;;5045250;28;20276;-75
2023/02/06 14:25:16;;;;;;;;;;;7.40;1.00;;;;;;5058185;28;19940;-76
2023/02/06 14:28:03;;;;;;;;;;;7.50;1.00;;;;;;5040363;28;20364;-75
2023/02/06 14:30:45;;;;;;;;;;;7.60;1.00;;;;;;5055751;28;19909;-76
2023/02/06 14:33:22;;;;;;;;;;;7.80;1.00;;;;;;5052904;28;20330;-75
2023/02/06 14:36:06;;;;;;;;;;;7.90;1.00;;;;;;5049178;28;19920;-77
2023/02/06 14:38:49;;;;;;;;;;;7.90;1.00;;;;;;5069285;28;19967;-76
2023/02/06 14:41:15;;;;;;;;;;;8.00;1.00;;;;;;5049194;28;20280;-75
2023/02/06 14:43:42;;;;;;;;;;;8.00;1.00;;;;;;5054592;28;19912;-77
2023/02/06 14:46:10;;;;;;;;;;;8.00;1.00;;;;;;5074717;28;19966;-75
2023/02/06 14:48:57;;;;;;;;;;;8.00;1.00;;;;;;5051747;28;19993;-78
2023/02/06 14:51:25;;;;;;;;;;;8.00;1.00;;;;;;5038396;28;19951;-77
2023/02/06 14:54:00;;;;;;;;;;;7.90;1.00;;;;;;5034433;28;19924;-76
2023/02/06 14:56:45;;;;;;;;;;;7.90;1.00;;;;;;5049424;28;20050;-76
2023/02/06 14:59:11;;;;;;;;;;;7.90;1.00;;;;;;5084022;28;19927;-75
2023/02/06 15:01:37;;;;;;;;;;;7.80;1.00;;;;;;5043291;28;19996;-78
2023/02/06 15:04:10;;;;;;;;;;;7.70;1.00;;;;;;5033532;28;20303;-77
2023/02/06 15:06:41;;;;;;;;;;;7.60;1.00;;;;;;5034693;28;19995;-77
2023/02/06 15:09:36;;;;;;;;;;;7.60;1.00;;;;;;5064963;28;19917;-77
2023/02/06 15:12:15;;;;;;;;;;;7.60;1.00;;;;;;5042897;28;20016;-77
2023/02/06 15:15:01;;;;;;;;;;;7.50;1.00;;;;;;5061944;28;19913;-76
2023/02/06 15:17:27;;;;;;;;;;;8.40;1.00;;;;;;5083513;28;20356;-77
2023/02/06 15:20:24;;;;;;;;;;;7.30;1.00;;;;;;5056755;28;20379;-76
2023/02/06 15:22:52;;;;;;;;;;;7.20;1.00;;;;;;5029466;28;19955;-78
2023/02/06 15:25:27;;;;;;;;;;;7.10;1.00;;;;;;5002366;28;19921;-77
2023/02/06 15:27:58;;;;;;;;;;;7.10;1.00;;;;;;5024360;28;20265;-76
2023/02/06 15:30:27;;;;;;;;;;;7.10;1.00;;;;;;5012682;28;20345;-77
2023/02/06 15:33:15;;;;;;;;;;;7.00;1.00;;;;;;5011927;28;19909;-76
2023/02/06 15:35:51;;;;;;;;;;;7.00;1.00;;;;;;5044822;28;19909;-77
2023/02/06 15:38:29;;;;;;;;;;;6.90;1.00;;;;;;5014252;28;20012;-76
2023/02/06 15:41:15;;;;;;;;;;;6.80;1.00;;;;;;5012240;28;20427;-77
2023/02/06 15:43:55;;;;;;;;;;;6.80;1.00;;;;;;5012673;28;19909;-77
2023/02/06 15:46:21;;;;;;;;;;;6.80;1.00;;;;;;5028044;28;19913;-76
2023/02/06 15:48:51;;;;;;;;;;;6.70;1.00;;;;;;5029803;28;19909;-77
2023/02/06 15:51:19;;;;;;;;;;;6.60;1.00;;;;;;5014862;28;19914;-76
2023/02/06 15:54:04;;;;;;;;;;;6.50;1.00;;;;;;5011644;28;19917;-75
2023/02/06 15:56:36;;;;;;;;;;;6.50;1.00;;;;;;5015249;28;19945;-77
2023/02/06 15:59:03;;;;;;;;;;;6.40;1.00;;;;;;5029266;28;19959;-81
2023/02/06 16:01:37;;;;;;;;;;;6.30;1.00;;;;;;5052807;28;19956;-79
2023/02/06 16:04:16;;;;;;;;;;;6.20;1.00;;;;;;5045774;28;19909;-78
2023/02/06 16:07:11;;;;;;;;;;;6.10;1.00;;;;;;5042227;28;19964;-74
2023/02/06 16:09:41;;;;;;;;;;;6.10;1.00;;;;;;5043657;28;20301;-79
2023/02/06 16:12:07;;;;;;;;;;;5.80;1.00;;;;;;5031115;28;20384;-77
2023/02/06 16:14:40;;;;;;;;;;;5.80;1.00;;;;;;5022095;28;20004;-77
2023/02/06 16:17:10;;;;;;;;;;;5.70;1.00;;;;;;5020506;28;19917;-80
2023/02/06 16:20:00;;;;;;;;;;;5.60;1.00;;;;;;5034477;28;20387;-76
2023/02/06 16:22:29;;;;;;;;;;;5.60;1.00;;;;;;5030574;28;20419;-77
2023/02/06 16:25:15;;;;;;;;;;;5.50;1.00;;;;;;5033205;28;19975;-76
2023/02/06 16:27:43;;;;;;;;;;;5.40;1.00;;;;;;5011116;28;20299;-76
2023/02/06 16:30:21;;;;;;;;;;;5.30;1.00;;;;;;5020158;28;20364;-76
2023/02/06 16:32:51;;;;;;;;;;;5.30;1.00;;;;;;5015616;28;19910;-76
2023/02/06 16:35:33;;;;;;;;;;;5.30;1.00;;;;;;5014410;28;19914;-77
2023/02/06 16:38:15;;;;;;;;;;;5.40;1.00;;;;;;5014719;28;20393;-76
2023/02/06 16:40:41;;;;;;;;;;;5.30;1.00;;;;;;4998653;28;19914;-76
2023/02/06 16:43:10;;;;;;;;;;;5.30;1.00;;;;;;5014811;28;20280;-76
2023/02/06 16:45:46;;;;;;;;;;;5.40;1.00;;;;;;5021423;28;19924;-76
2023/02/06 16:48:16;;;;;;;;;;;5.40;1.00;;;;;;5034881;28;20392;-76
2023/02/06 16:50:42;;;;;;;;;;;5.40;1.00;;;;;;5025341;28;19953;-77
2023/02/06 16:53:18;;;;;;;;;;;5.50;1.00;;;;;;5034677;28;19918;-77
2023/02/06 16:55:51;;;;;;;;;;;5.60;1.00;;;;;;5027328;28;19909;-78
2023/02/06 16:58:22;;;;;;;;;;;5.60;1.00;;;;;;5034140;28;19953;-77
2023/02/06 17:01:07;;;;;;;;;;;5.60;1.00;;;;;;5017983;28;19913;-77
2023/02/06 17:03:33;;;;;;;;;;;5.60;1.00;;;;;;5017336;28;20468;-77
2023/02/06 17:06:33;;;;;;;;;;;5.60;1.00;;;;;;5041246;28;19909;-77
2023/02/06 17:09:16;;;;;;;;;;;5.60;1.00;;;;;;5052022;28;19909;-77
2023/02/06 17:11:58;;;;;;;;;;;5.50;1.00;;;;;;5036615;28;19955;-78
2023/02/06 17:17:33;;;;;;;;;;;5.40;1.00;;;;;;5043519;28;19919;-77
2023/02/06 17:19:59;;;;;;;;;;;5.30;1.00;;;;;;5049397;28;19909;-77
2023/02/06 17:22:27;;;;;;;;;;;5.20;1.00;;;;;;5056184;28;19909;-77
2023/02/06 17:25:27;;;;;;;;;;;5.10;1.00;;;;;;5071383;28;19920;-77
2023/02/06 17:27:58;;;;;;;;;;;5.00;1.00;;;;;;5055716;28;19916;-78
2023/02/06 17:30:34;;;;;;;;;;;4.90;1.00;;;;;;5062704;28;19979;-77
2023/02/06 17:33:16;;;;;;;;;;;4.90;1.00;;;;;;5052155;28;19955;-77
2023/02/06 17:35:51;;;;;;;;;;;4.80;1.00;;;;;;5043038;28;19979;-78
2023/02/06 17:38:21;;;;;;;;;;;4.90;1.00;;;;;;5043596;28;20341;-78
2023/02/06 17:41:03;;;;;;;;;;;4.80;1.00;;;;;;5045402;28;19913;-78
2023/02/06 17:43:39;;;;;;;;;;;4.90;1.00;;;;;;5039682;28;19935;-78
2023/02/06 17:46:15;;;;;;;;;;;4.80;1.00;;;;;;5040527;28;19920;-77
2023/02/06 17:49:09;;;;;;;;;;;4.90;1.00;;;;;;5055693;28;19913;-77
2023/02/06 17:51:35;;;;;;;;;;;4.90;1.00;;;;;;5051086;28;19921;-77
2023/02/06 17:54:00;;;;;;;;;;;5.00;1.00;;;;;;5041905;28;19924;-79
2023/02/06 17:56:39;;;;;;;;;;;5.00;1.00;;;;;;5046293;28;20000;-78
2023/02/06 17:59:05;;;;;;;;;;;5.00;1.00;;;;;;5053904;28;19912;-77
2023/02/06 18:01:45;;;;;;;;;;;5.00;1.00;;;;;;5049429;28;19920;-76
2023/02/06 18:04:23;;;;;;;;;;;5.10;1.00;;;;;;5041577;28;19917;-77
2023/02/06 18:07:09;;;;;;;;;;;5.10;1.00;;;;;;5054331;28;19939;-79
2023/02/06 18:09:46;;;;;;;;;;;5.10;1.00;;;;;;5061378;28;19924;-77
2023/02/06 18:15:21;;;;;;;;;;;5.00;1.00;;;;;;5045098;28;19921;-85
2023/02/06 18:17:53;;;;;;;;;;;4.90;1.00;;;;;;5055726;28;20000;-85
2023/02/06 18:23:45;;;;;;;;;;;4.80;1.00;;;;;;5045267;28;20051;-85